sensor_id;sensor_type;location;lat;lon;timestamp;pressure;altitude;pressure_sealevel;temperature
12918;BMP180;6526;54.312;13.092;2022-09-12T00:00:03;102062.00;;;19.30
12918;BMP180;6526;54.312;13.092;2022-09-12T00:02:30;102055.00;;;19.20
12918;BMP180;6526;54.312;13.092;2022-09-12T00:04:56;102065.00;;;19.20
12918;BMP180;6526;54.312;13.092;2022-09-12T00:07:22;102059.00;;;19.30
12918;BMP180;6526;54.312;13.092;2022-09-12T00:09:48;102064.00;;;19.30
12918;BMP180;6526;54.312;13.092;2022-09-12T00:12:14;102055.00;;;19.30
12918;BMP180;6526;54.312;13.092;2022-09-12T00:14:40;102059.00;;;19.30
12918;BMP180;6526;54.312;13.092;2022-09-12T00:17:06;102056.00;;;19.20
12918;BMP180;6526;54.312;13.092;2022-09-12T00:19:32;102057.00;;;19.20
12918;BMP180;6526;54.312;13.092;2022-09-12T00:21:58;102055.00;;;19.20
12918;BMP180;6526;54.312;13.092;2022-09-12T00:24:24;102058.00;;;19.20
12918;BMP180;6526;54.312;13.092;2022-09-12T00:26:50;102057.00;;;19.20
12918;BMP180;6526;54.312;13.092;2022-09-12T00:29:18;102055.00;;;19.20
12918;BMP180;6526;54.312;13.092;2022-09-12T00:31:45;102067.00;;;19.20
12918;BMP180;6526;54.312;13.092;2022-09-12T00:34:11;102061.00;;;19.20
12918;BMP180;6526;54.312;13.092;2022-09-12T00:36:38;102063.00;;;19.20
12918;BMP180;6526;54.312;13.092;2022-09-12T00:39:05;102060.00;;;19.30
12918;BMP180;6526;54.312;13.092;2022-09-12T00:41:36;102067.00;;;19.30
12918;BMP180;6526;54.312;13.092;2022-09-12T00:46:54;102055.00;;;19.20
12918;BMP180;6526;54.312;13.092;2022-09-12T00:52:29;102053.00;;;19.10
12918;BMP180;6526;54.312;13.092;2022-09-12T00:55:05;102059.00;;;19.10
12918;BMP180;6526;54.312;13.092;2022-09-12T00:57:37;102048.00;;;19.10
12918;BMP180;6526;54.312;13.092;2022-09-12T01:00:10;102050.00;;;19.00
12918;BMP180;6526;54.312;13.092;2022-09-12T01:02:44;102055.00;;;19.00
12918;BMP180;6526;54.312;13.092;2022-09-12T01:05:12;102047.00;;;18.90
12918;BMP180;6526;54.312;13.092;2022-09-12T01:07:39;102050.00;;;18.90
12918;BMP180;6526;54.312;13.092;2022-09-12T01:10:07;102045.00;;;18.80
12918;BMP180;6526;54.312;13.092;2022-09-12T01:12:33;102041.00;;;18.80
12918;BMP180;6526;54.312;13.092;2022-09-12T01:15:02;102037.00;;;18.70
12918;BMP180;6526;54.312;13.092;2022-09-12T01:17:49;102042.00;;;18.70
12918;BMP180;6526;54.312;13.092;2022-09-12T01:20:45;102043.00;;;18.70
12918;BMP180;6526;54.312;13.092;2022-09-12T01:37:16;102039.00;;;18.40
12918;BMP180;6526;54.312;13.092;2022-09-12T01:40:01;102039.00;;;18.40
12918;BMP180;6526;54.312;13.092;2022-09-12T01:45:46;102032.00;;;18.50
12918;BMP180;6526;54.312;13.092;2022-09-12T01:48:18;102036.00;;;18.50
12918;BMP180;6526;54.312;13.092;2022-09-12T01:51:07;102033.00;;;18.50
12918;BMP180;6526;54.312;13.092;2022-09-12T01:53:45;102036.00;;;18.50
12918;BMP180;6526;54.312;13.092;2022-09-12T01:56:22;102048.00;;;18.50
12918;BMP180;6526;54.312;13.092;2022-09-12T01:58:55;102039.00;;;18.40
12918;BMP180;6526;54.312;13.092;2022-09-12T02:01:32;102043.00;;;18.30
12918;BMP180;6526;54.312;13.092;2022-09-12T02:04:05;102039.00;;;18.30
12918;BMP180;6526;54.312;13.092;2022-09-12T02:06:48;102039.00;;;18.30
12918;BMP180;6526;54.312;13.092;2022-09-12T02:09:20;102049.00;;;18.30
12918;BMP180;6526;54.312;13.092;2022-09-12T02:11:51;102043.00;;;18.30
12918;BMP180;6526;54.312;13.092;2022-09-12T02:14:28;102041.00;;;18.30
12918;BMP180;6526;54.312;13.092;2022-09-12T02:17:05;102046.00;;;18.20
12918;BMP180;6526;54.312;13.092;2022-09-12T02:20:02;102045.00;;;18.20
12918;BMP180;6526;54.312;13.092;2022-09-12T02:22:31;102048.00;;;18.20
12918;BMP180;6526;54.312;13.092;2022-09-12T02:24:59;102049.00;;;18.20
12918;BMP180;6526;54.312;13.092;2022-09-12T02:27:32;102041.00;;;18.20
12918;BMP180;6526;54.312;13.092;2022-09-12T02:30:03;102030.00;;;18.30
12918;BMP180;6526;54.312;13.092;2022-09-12T02:40:32;102039.00;;;18.20
12918;BMP180;6526;54.312;13.092;2022-09-12T02:43:00;102033.00;;;18.30
12918;BMP180;6526;54.312;13.092;2022-09-12T02:45:27;102030.00;;;18.20
12918;BMP180;6526;54.312;13.092;2022-09-12T02:50:39;102028.00;;;18.20
12918;BMP180;6526;54.312;13.092;2022-09-12T02:53:06;102042.00;;;18.20
12918;BMP180;6526;54.312;13.092;2022-09-12T02:55:35;102032.00;;;18.20
12918;BMP180;6526;54.312;13.092;2022-09-12T02:58:03;102041.00;;;18.20
12918;BMP180;6526;54.312;13.092;2022-09-12T03:10:19;102047.00;;;18.00
12918;BMP180;6526;54.312;13.092;2022-09-12T03:13:09;102045.00;;;18.10
12918;BMP180;6526;54.312;13.092;2022-09-12T03:18:36;102046.00;;;18.10
12918;BMP180;6526;54.312;13.092;2022-09-12T03:21:47;102047.00;;;18.10
12918;BMP180;6526;54.312;13.092;2022-09-12T03:24:20;102045.00;;;18.00
12918;BMP180;6526;54.312;13.092;2022-09-12T03:26:58;102049.00;;;18.10
12918;BMP180;6526;54.312;13.092;2022-09-12T03:29:26;102045.00;;;18.00
12918;BMP180;6526;54.312;13.092;2022-09-12T03:31:55;102044.00;;;18.00
12918;BMP180;6526;54.312;13.092;2022-09-12T03:34:24;102044.00;;;17.90
12918;BMP180;6526;54.312;13.092;2022-09-12T03:36:51;102056.00;;;17.80
12918;BMP180;6526;54.312;13.092;2022-09-12T03:39:17;102049.00;;;17.90
12918;BMP180;6526;54.312;13.092;2022-09-12T03:41:43;102045.00;;;17.90
12918;BMP180;6526;54.312;13.092;2022-09-12T03:44:09;102048.00;;;17.80
12918;BMP180;6526;54.312;13.092;2022-09-12T03:46:35;102044.00;;;17.90
12918;BMP180;6526;54.312;13.092;2022-09-12T03:49:01;102053.00;;;17.90
12918;BMP180;6526;54.312;13.092;2022-09-12T03:51:27;102051.00;;;17.90
12918;BMP180;6526;54.312;13.092;2022-09-12T03:53:54;102050.00;;;18.00
12918;BMP180;6526;54.312;13.092;2022-09-12T03:56:20;102043.00;;;17.90
12918;BMP180;6526;54.312;13.092;2022-09-12T03:58:46;102041.00;;;18.00
12918;BMP180;6526;54.312;13.092;2022-09-12T04:01:15;102048.00;;;17.90
12918;BMP180;6526;54.312;13.092;2022-09-12T04:03:42;102054.00;;;17.90
12918;BMP180;6526;54.312;13.092;2022-09-12T04:06:10;102047.00;;;17.90
12918;BMP180;6526;54.312;13.092;2022-09-12T04:08:37;102048.00;;;17.90
12918;BMP180;6526;54.312;13.092;2022-09-12T04:11:04;102055.00;;;17.90
12918;BMP180;6526;54.312;13.092;2022-09-12T04:13:31;102056.00;;;17.80
12918;BMP180;6526;54.312;13.092;2022-09-12T04:16:00;102052.00;;;17.80
12918;BMP180;6526;54.312;13.092;2022-09-12T04:18:26;102051.00;;;17.80
12918;BMP180;6526;54.312;13.092;2022-09-12T04:20:53;102055.00;;;17.80
12918;BMP180;6526;54.312;13.092;2022-09-12T04:23:19;102049.00;;;17.70
12918;BMP180;6526;54.312;13.092;2022-09-12T04:25:54;102059.00;;;17.70
12918;BMP180;6526;54.312;13.092;2022-09-12T04:28:20;102045.00;;;17.70
12918;BMP180;6526;54.312;13.092;2022-09-12T04:30:47;102050.00;;;17.60
12918;BMP180;6526;54.312;13.092;2022-09-12T04:33:13;102056.00;;;17.60
12918;BMP180;6526;54.312;13.092;2022-09-12T04:35:39;102052.00;;;17.60
12918;BMP180;6526;54.312;13.092;2022-09-12T04:38:06;102049.00;;;17.60
12918;BMP180;6526;54.312;13.092;2022-09-12T04:40:32;102059.00;;;17.60
12918;BMP180;6526;54.312;13.092;2022-09-12T04:42:58;102055.00;;;17.50
12918;BMP180;6526;54.312;13.092;2022-09-12T04:45:25;102059.00;;;17.50
12918;BMP180;6526;54.312;13.092;2022-09-12T04:47:51;102042.00;;;17.50
12918;BMP180;6526;54.312;13.092;2022-09-12T04:50:17;102051.00;;;17.50
12918;BMP180;6526;54.312;13.092;2022-09-12T04:52:47;102060.00;;;17.50
12918;BMP180;6526;54.312;13.092;2022-09-12T04:55:14;102057.00;;;17.70
12918;BMP180;6526;54.312;13.092;2022-09-12T04:57:40;102052.00;;;17.60
12918;BMP180;6526;54.312;13.092;2022-09-12T05:00:07;102061.00;;;17.50
12918;BMP180;6526;54.312;13.092;2022-09-12T05:02:33;102064.00;;;17.50
12918;BMP180;6526;54.312;13.092;2022-09-12T05:04:59;102058.00;;;17.60
12918;BMP180;6526;54.312;13.092;2022-09-12T05:07:25;102058.00;;;17.60
12918;BMP180;6526;54.312;13.092;2022-09-12T05:09:52;102070.00;;;17.60
12918;BMP180;6526;54.312;13.092;2022-09-12T05:12:18;102064.00;;;17.70
12918;BMP180;6526;54.312;13.092;2022-09-12T05:14:44;102064.00;;;17.80
12918;BMP180;6526;54.312;13.092;2022-09-12T05:17:10;102063.00;;;17.80
12918;BMP180;6526;54.312;13.092;2022-09-12T05:19:36;102066.00;;;17.80
12918;BMP180;6526;54.312;13.092;2022-09-12T05:22:02;102062.00;;;17.80
12918;BMP180;6526;54.312;13.092;2022-09-12T05:24:29;102060.00;;;17.80
12918;BMP180;6526;54.312;13.092;2022-09-12T05:26:55;102068.00;;;17.90
12918;BMP180;6526;54.312;13.092;2022-09-12T05:29:21;102065.00;;;18.00
12918;BMP180;6526;54.312;13.092;2022-09-12T05:31:49;102069.00;;;18.10
12918;BMP180;6526;54.312;13.092;2022-09-12T05:34:17;102072.00;;;18.00
12918;BMP180;6526;54.312;13.092;2022-09-12T05:36:43;102075.00;;;18.10
12918;BMP180;6526;54.312;13.092;2022-09-12T05:39:09;102077.00;;;18.10
12918;BMP180;6526;54.312;13.092;2022-09-12T05:41:35;102071.00;;;18.20
12918;BMP180;6526;54.312;13.092;2022-09-12T05:44:03;102069.00;;;18.40
12918;BMP180;6526;54.312;13.092;2022-09-12T05:46:34;102078.00;;;18.50
12918;BMP180;6526;54.312;13.092;2022-09-12T05:49:05;102074.00;;;18.60
12918;BMP180;6526;54.312;13.092;2022-09-12T05:51:34;102074.00;;;18.70
12918;BMP180;6526;54.312;13.092;2022-09-12T05:54:01;102084.00;;;19.00
12918;BMP180;6526;54.312;13.092;2022-09-12T05:56:32;102081.00;;;19.10
12918;BMP180;6526;54.312;13.092;2022-09-12T05:59:15;102073.00;;;19.10
12918;BMP180;6526;54.312;13.092;2022-09-12T06:01:42;102076.00;;;19.30
12918;BMP180;6526;54.312;13.092;2022-09-12T06:04:09;102080.00;;;19.20
12918;BMP180;6526;54.312;13.092;2022-09-12T06:06:38;102083.00;;;19.30
12918;BMP180;6526;54.312;13.092;2022-09-12T06:09:06;102075.00;;;19.20
12918;BMP180;6526;54.312;13.092;2022-09-12T06:11:34;102082.00;;;19.30
12918;BMP180;6526;54.312;13.092;2022-09-12T06:14:02;102080.00;;;19.50
12918;BMP180;6526;54.312;13.092;2022-09-12T06:16:30;102089.00;;;19.60
12918;BMP180;6526;54.312;13.092;2022-09-12T06:19:14;102089.00;;;19.80
12918;BMP180;6526;54.312;13.092;2022-09-12T06:21:41;102081.00;;;19.80
12918;BMP180;6526;54.312;13.092;2022-09-12T06:24:07;102081.00;;;19.80
12918;BMP180;6526;54.312;13.092;2022-09-12T06:26:33;102078.00;;;20.00
12918;BMP180;6526;54.312;13.092;2022-09-12T06:29:00;102076.00;;;20.10
12918;BMP180;6526;54.312;13.092;2022-09-12T06:31:29;102072.00;;;20.30
12918;BMP180;6526;54.312;13.092;2022-09-12T06:33:58;102078.00;;;20.40
12918;BMP180;6526;54.312;13.092;2022-09-12T06:36:27;102075.00;;;20.50
12918;BMP180;6526;54.312;13.092;2022-09-12T06:38:59;102075.00;;;20.60
12918;BMP180;6526;54.312;13.092;2022-09-12T06:41:26;102075.00;;;20.70
12918;BMP180;6526;54.312;13.092;2022-09-12T06:43:53;102077.00;;;20.90
12918;BMP180;6526;54.312;13.092;2022-09-12T06:46:20;102069.00;;;21.10
12918;BMP180;6526;54.312;13.092;2022-09-12T06:48:46;102064.00;;;21.30
12918;BMP180;6526;54.312;13.092;2022-09-12T06:51:14;102070.00;;;21.50
12918;BMP180;6526;54.312;13.092;2022-09-12T06:53:41;102080.00;;;21.60
12918;BMP180;6526;54.312;13.092;2022-09-12T06:56:13;102065.00;;;21.80
12918;BMP180;6526;54.312;13.092;2022-09-12T06:58:41;102068.00;;;21.80
12918;BMP180;6526;54.312;13.092;2022-09-12T07:01:13;102072.00;;;21.90
12918;BMP180;6526;54.312;13.092;2022-09-12T07:03:40;102074.00;;;22.20
12918;BMP180;6526;54.312;13.092;2022-09-12T07:06:11;102069.00;;;22.20
12918;BMP180;6526;54.312;13.092;2022-09-12T07:08:38;102063.00;;;22.50
12918;BMP180;6526;54.312;13.092;2022-09-12T07:11:17;102075.00;;;22.60
12918;BMP180;6526;54.312;13.092;2022-09-12T07:13:46;102080.00;;;22.70
12918;BMP180;6526;54.312;13.092;2022-09-12T07:16:12;102073.00;;;22.80
12918;BMP180;6526;54.312;13.092;2022-09-12T07:18:39;102067.00;;;22.90
12918;BMP180;6526;54.312;13.092;2022-09-12T07:21:08;102063.00;;;23.00
12918;BMP180;6526;54.312;13.092;2022-09-12T07:23:35;102062.00;;;23.10
12918;BMP180;6526;54.312;13.092;2022-09-12T07:26:01;102063.00;;;23.20
12918;BMP180;6526;54.312;13.092;2022-09-12T07:28:30;102069.00;;;23.10
12918;BMP180;6526;54.312;13.092;2022-09-12T07:30:56;102075.00;;;23.30
12918;BMP180;6526;54.312;13.092;2022-09-12T07:33:26;102065.00;;;23.50
12918;BMP180;6526;54.312;13.092;2022-09-12T07:35:53;102075.00;;;23.50
12918;BMP180;6526;54.312;13.092;2022-09-12T07:38:20;102074.00;;;23.80
12918;BMP180;6526;54.312;13.092;2022-09-12T07:40:46;102074.00;;;24.10
12918;BMP180;6526;54.312;13.092;2022-09-12T07:43:12;102082.00;;;24.20
12918;BMP180;6526;54.312;13.092;2022-09-12T07:45:38;102080.00;;;24.20
12918;BMP180;6526;54.312;13.092;2022-09-12T07:48:07;102084.00;;;24.40
12918;BMP180;6526;54.312;13.092;2022-09-12T07:50:33;102083.00;;;24.20
12918;BMP180;6526;54.312;13.092;2022-09-12T07:52:59;102083.00;;;24.10
12918;BMP180;6526;54.312;13.092;2022-09-12T07:55:26;102087.00;;;24.20
12918;BMP180;6526;54.312;13.092;2022-09-12T07:57:52;102091.00;;;24.10
12918;BMP180;6526;54.312;13.092;2022-09-12T08:00:18;102091.00;;;24.20
12918;BMP180;6526;54.312;13.092;2022-09-12T08:02:49;102091.00;;;24.30
12918;BMP180;6526;54.312;13.092;2022-09-12T08:05:15;102084.00;;;24.40
12918;BMP180;6526;54.312;13.092;2022-09-12T08:07:41;102084.00;;;24.30
12918;BMP180;6526;54.312;13.092;2022-09-12T08:10:07;102088.00;;;24.60
12918;BMP180;6526;54.312;13.092;2022-09-12T08:12:33;102090.00;;;24.70
12918;BMP180;6526;54.312;13.092;2022-09-12T08:15:00;102094.00;;;24.50
12918;BMP180;6526;54.312;13.092;2022-09-12T08:17:26;102082.00;;;24.80
12918;BMP180;6526;54.312;13.092;2022-09-12T08:19:52;102092.00;;;25.10
12918;BMP180;6526;54.312;13.092;2022-09-12T08:22:18;102096.00;;;25.20
12918;BMP180;6526;54.312;13.092;2022-09-12T08:24:47;102093.00;;;25.10
12918;BMP180;6526;54.312;13.092;2022-09-12T08:27:13;102088.00;;;24.90
12918;BMP180;6526;54.312;13.092;2022-09-12T08:29:39;102089.00;;;24.90
12918;BMP180;6526;54.312;13.092;2022-09-12T08:32:06;102094.00;;;25.30
12918;BMP180;6526;54.312;13.092;2022-09-12T08:34:32;102078.00;;;25.40
12918;BMP180;6526;54.312;13.092;2022-09-12T08:36:58;102090.00;;;25.70
12918;BMP180;6526;54.312;13.092;2022-09-12T08:39:24;102082.00;;;25.60
12918;BMP180;6526;54.312;13.092;2022-09-12T08:42:04;102087.00;;;25.60
12918;BMP180;6526;54.312;13.092;2022-09-12T08:44:49;102083.00;;;25.70
12918;BMP180;6526;54.312;13.092;2022-09-12T08:47:31;102078.00;;;25.90
12918;BMP180;6526;54.312;13.092;2022-09-12T08:53:02;102087.00;;;25.40
12918;BMP180;6526;54.312;13.092;2022-09-12T08:55:32;102091.00;;;25.20
12918;BMP180;6526;54.312;13.092;2022-09-12T08:58:00;102086.00;;;25.10
12918;BMP180;6526;54.312;13.092;2022-09-12T09:00:35;102073.00;;;25.30
12918;BMP180;6526;54.312;13.092;2022-09-12T09:03:22;102084.00;;;25.50
12918;BMP180;6526;54.312;13.092;2022-09-12T09:06:03;102077.00;;;25.20
12918;BMP180;6526;54.312;13.092;2022-09-12T09:09:03;102072.00;;;24.80
12918;BMP180;6526;54.312;13.092;2022-09-12T09:11:42;102071.00;;;24.80
12918;BMP180;6526;54.312;13.092;2022-09-12T09:17:21;102080.00;;;25.00
12918;BMP180;6526;54.312;13.092;2022-09-12T09:25:23;102082.00;;;24.50
12918;BMP180;6526;54.312;13.092;2022-09-12T09:28:38;102076.00;;;24.60
12918;BMP180;6526;54.312;13.092;2022-09-12T09:31:19;102073.00;;;24.80
12918;BMP180;6526;54.312;13.092;2022-09-12T09:33:48;102075.00;;;24.80
12918;BMP180;6526;54.312;13.092;2022-09-12T09:36:44;102081.00;;;24.60
12918;BMP180;6526;54.312;13.092;2022-09-12T09:42:43;102083.00;;;24.00
12918;BMP180;6526;54.312;13.092;2022-09-12T09:45:20;102085.00;;;23.70
12918;BMP180;6526;54.312;13.092;2022-09-12T09:47:56;102086.00;;;23.70
12918;BMP180;6526;54.312;13.092;2022-09-12T09:50:22;102078.00;;;23.70
12918;BMP180;6526;54.312;13.092;2022-09-12T09:52:50;102076.00;;;23.40
12918;BMP180;6526;54.312;13.092;2022-09-12T09:55:24;102082.00;;;23.10
12918;BMP180;6526;54.312;13.092;2022-09-12T09:57:53;102083.00;;;22.70
12918;BMP180;6526;54.312;13.092;2022-09-12T10:00:33;102083.00;;;22.80
12918;BMP180;6526;54.312;13.092;2022-09-12T10:05:51;102076.00;;;23.10
12918;BMP180;6526;54.312;13.092;2022-09-12T10:08:31;102073.00;;;23.30
12918;BMP180;6526;54.312;13.092;2022-09-12T10:11:06;102082.00;;;23.30
12918;BMP180;6526;54.312;13.092;2022-09-12T10:13:55;102086.00;;;23.00
12918;BMP180;6526;54.312;13.092;2022-09-12T10:16:30;102076.00;;;22.90
12918;BMP180;6526;54.312;13.092;2022-09-12T10:19:01;102073.00;;;22.90
12918;BMP180;6526;54.312;13.092;2022-09-12T10:21:35;102078.00;;;22.90
12918;BMP180;6526;54.312;13.092;2022-09-12T10:24:30;102064.00;;;22.80
12918;BMP180;6526;54.312;13.092;2022-09-12T10:29:33;102063.00;;;22.90
12918;BMP180;6526;54.312;13.092;2022-09-12T10:32:03;102064.00;;;22.70
12918;BMP180;6526;54.312;13.092;2022-09-12T10:34:43;102061.00;;;22.50
12918;BMP180;6526;54.312;13.092;2022-09-12T10:37:28;102064.00;;;22.50
12918;BMP180;6526;54.312;13.092;2022-09-12T10:39:57;102059.00;;;22.50
12918;BMP180;6526;54.312;13.092;2022-09-12T10:42:53;102058.00;;;22.50
12918;BMP180;6526;54.312;13.092;2022-09-12T10:47:48;102056.00;;;22.90
12918;BMP180;6526;54.312;13.092;2022-09-12T10:52:52;102047.00;;;23.10
12918;BMP180;6526;54.312;13.092;2022-09-12T10:55:24;102048.00;;;23.10
12918;BMP180;6526;54.312;13.092;2022-09-12T11:01:03;102041.00;;;23.60
12918;BMP180;6526;54.312;13.092;2022-09-12T11:06:16;102047.00;;;23.20
12918;BMP180;6526;54.312;13.092;2022-09-12T11:09:16;102046.00;;;23.10
12918;BMP180;6526;54.312;13.092;2022-09-12T11:15:30;102045.00;;;23.50
12918;BMP180;6526;54.312;13.092;2022-09-12T11:34:46;102040.00;;;23.10
12918;BMP180;6526;54.312;13.092;2022-09-12T11:39:54;102039.00;;;23.00
12918;BMP180;6526;54.312;13.092;2022-09-12T11:42:25;102041.00;;;23.00
12918;BMP180;6526;54.312;13.092;2022-09-12T11:45:14;102032.00;;;23.00
12918;BMP180;6526;54.312;13.092;2022-09-12T11:47:45;102034.00;;;23.00
12918;BMP180;6526;54.312;13.092;2022-09-12T11:50:25;102031.00;;;23.10
12918;BMP180;6526;54.312;13.092;2022-09-12T11:52:54;102034.00;;;23.10
12918;BMP180;6526;54.312;13.092;2022-09-12T11:55:26;102042.00;;;23.20
12918;BMP180;6526;54.312;13.092;2022-09-12T11:57:55;102034.00;;;23.50
12918;BMP180;6526;54.312;13.092;2022-09-12T12:00:36;102031.00;;;23.50
12918;BMP180;6526;54.312;13.092;2022-09-12T12:05:41;102031.00;;;23.40
12918;BMP180;6526;54.312;13.092;2022-09-12T12:08:08;102026.00;;;23.70
12918;BMP180;6526;54.312;13.092;2022-09-12T12:10:42;102033.00;;;24.10
12918;BMP180;6526;54.312;13.092;2022-09-12T12:13:30;102026.00;;;24.00
12918;BMP180;6526;54.312;13.092;2022-09-12T12:16:00;102034.00;;;24.00
12918;BMP180;6526;54.312;13.092;2022-09-12T12:18:30;102028.00;;;24.30
12918;BMP180;6526;54.312;13.092;2022-09-12T12:21:25;102037.00;;;24.30
12918;BMP180;6526;54.312;13.092;2022-09-12T12:29:11;102033.00;;;24.20
12918;BMP180;6526;54.312;13.092;2022-09-12T12:34:36;102029.00;;;24.40
12918;BMP180;6526;54.312;13.092;2022-09-12T12:40:20;102022.00;;;24.30
12918;BMP180;6526;54.312;13.092;2022-09-12T12:47:49;102025.00;;;23.80
12918;BMP180;6526;54.312;13.092;2022-09-12T12:52:49;102019.00;;;23.90
12918;BMP180;6526;54.312;13.092;2022-09-12T12:55:31;102017.00;;;24.10
12918;BMP180;6526;54.312;13.092;2022-09-12T12:58:00;102027.00;;;24.00
12918;BMP180;6526;54.312;13.092;2022-09-12T13:00:32;102015.00;;;23.80
12918;BMP180;6526;54.312;13.092;2022-09-12T13:05:46;102019.00;;;23.70
12918;BMP180;6526;54.312;13.092;2022-09-12T13:10:50;102004.00;;;23.80
12918;BMP180;6526;54.312;13.092;2022-09-12T13:13:34;102006.00;;;23.80
12918;BMP180;6526;54.312;13.092;2022-09-12T13:16:02;102003.00;;;23.70
12918;BMP180;6526;54.312;13.092;2022-09-12T13:21:19;101998.00;;;23.70
12918;BMP180;6526;54.312;13.092;2022-09-12T13:24:12;102001.00;;;23.80
12918;BMP180;6526;54.312;13.092;2022-09-12T13:26:43;101987.00;;;23.90
12918;BMP180;6526;54.312;13.092;2022-09-12T13:29:16;101991.00;;;23.90
12918;BMP180;6526;54.312;13.092;2022-09-12T13:31:47;101991.00;;;23.60
12918;BMP180;6526;54.312;13.092;2022-09-12T13:34:24;101994.00;;;23.40
12918;BMP180;6526;54.312;13.092;2022-09-12T13:39:48;102006.00;;;23.10
12918;BMP180;6526;54.312;13.092;2022-09-12T13:45:19;101986.00;;;23.10
12918;BMP180;6526;54.312;13.092;2022-09-12T13:47:52;101990.00;;;22.90
12918;BMP180;6526;54.312;13.092;2022-09-12T13:50:22;101991.00;;;23.00
12918;BMP180;6526;54.312;13.092;2022-09-12T13:52:52;101997.00;;;23.00
12918;BMP180;6526;54.312;13.092;2022-09-12T13:55:29;101982.00;;;22.90
12918;BMP180;6526;54.312;13.092;2022-09-12T13:58:20;101986.00;;;23.00
12918;BMP180;6526;54.312;13.092;2022-09-12T14:01:12;101987.00;;;23.10
12918;BMP180;6526;54.312;13.092;2022-09-12T14:03:58;101979.00;;;23.20
12918;BMP180;6526;54.312;13.092;2022-09-12T14:06:48;101973.00;;;23.30
12918;BMP180;6526;54.312;13.092;2022-09-12T14:09:27;101972.00;;;23.30
12918;BMP180;6526;54.312;13.092;2022-09-12T14:11:54;101971.00;;;23.10
12918;BMP180;6526;54.312;13.092;2022-09-12T14:14:34;101967.00;;;23.00
12918;BMP180;6526;54.312;13.092;2022-09-12T14:19:47;101973.00;;;22.50
12918;BMP180;6526;54.312;13.092;2022-09-12T14:22:14;101970.00;;;22.40
12918;BMP180;6526;54.312;13.092;2022-09-12T14:24:50;101961.00;;;22.40
12918;BMP180;6526;54.312;13.092;2022-09-12T14:27:24;101966.00;;;22.30
12918;BMP180;6526;54.312;13.092;2022-09-12T14:30:06;101971.00;;;22.20
12918;BMP180;6526;54.312;13.092;2022-09-12T14:32:34;101960.00;;;22.10
12918;BMP180;6526;54.312;13.092;2022-09-12T14:35:18;101969.00;;;22.00
12918;BMP180;6526;54.312;13.092;2022-09-12T14:37:47;101965.00;;;21.90
12918;BMP180;6526;54.312;13.092;2022-09-12T14:40:22;101963.00;;;22.00
12918;BMP180;6526;54.312;13.092;2022-09-12T14:42:50;101960.00;;;22.10
12918;BMP180;6526;54.312;13.092;2022-09-12T14:45:30;101967.00;;;22.30
12918;BMP180;6526;54.312;13.092;2022-09-12T14:47:57;101959.00;;;22.40
12918;BMP180;6526;54.312;13.092;2022-09-12T14:50:28;101955.00;;;22.50
12918;BMP180;6526;54.312;13.092;2022-09-12T14:53:20;101949.00;;;22.40
12918;BMP180;6526;54.312;13.092;2022-09-12T14:56:07;101944.00;;;22.30
12918;BMP180;6526;54.312;13.092;2022-09-12T14:58:34;101937.00;;;22.20
12918;BMP180;6526;54.312;13.092;2022-09-12T15:03:36;101945.00;;;21.90
12918;BMP180;6526;54.312;13.092;2022-09-12T15:06:04;101947.00;;;21.80
12918;BMP180;6526;54.312;13.092;2022-09-12T15:08:32;101947.00;;;21.80
12918;BMP180;6526;54.312;13.092;2022-09-12T15:10:59;101954.00;;;21.90
12918;BMP180;6526;54.312;13.092;2022-09-12T15:13:26;101935.00;;;22.00
12918;BMP180;6526;54.312;13.092;2022-09-12T15:15:57;101951.00;;;21.90
12918;BMP180;6526;54.312;13.092;2022-09-12T15:18:28;101944.00;;;22.00
12918;BMP180;6526;54.312;13.092;2022-09-12T15:20:57;101947.00;;;22.20
12918;BMP180;6526;54.312;13.092;2022-09-12T15:23:32;101940.00;;;22.20
12918;BMP180;6526;54.312;13.092;2022-09-12T15:26:00;101931.00;;;22.20
12918;BMP180;6526;54.312;13.092;2022-09-12T15:28:26;101929.00;;;22.10
12918;BMP180;6526;54.312;13.092;2022-09-12T15:30:54;101925.00;;;22.00
12918;BMP180;6526;54.312;13.092;2022-09-12T15:33:22;101927.00;;;21.80
12918;BMP180;6526;54.312;13.092;2022-09-12T15:35:50;101934.00;;;21.50
12918;BMP180;6526;54.312;13.092;2022-09-12T15:38:16;101920.00;;;21.40
12918;BMP180;6526;54.312;13.092;2022-09-12T15:40:43;101921.00;;;21.40
12918;BMP180;6526;54.312;13.092;2022-09-12T15:43:12;101927.00;;;21.40
12918;BMP180;6526;54.312;13.092;2022-09-12T15:45:40;101930.00;;;21.50
12918;BMP180;6526;54.312;13.092;2022-09-12T15:48:07;101931.00;;;21.50
12918;BMP180;6526;54.312;13.092;2022-09-12T15:50:34;101931.00;;;21.50
12918;BMP180;6526;54.312;13.092;2022-09-12T15:53:01;101925.00;;;21.60
12918;BMP180;6526;54.312;13.092;2022-09-12T15:55:29;101929.00;;;21.60
12918;BMP180;6526;54.312;13.092;2022-09-12T15:57:57;101918.00;;;21.60
12918;BMP180;6526;54.312;13.092;2022-09-12T16:00:23;101922.00;;;21.50
12918;BMP180;6526;54.312;13.092;2022-09-12T16:02:52;101918.00;;;21.40
12918;BMP180;6526;54.312;13.092;2022-09-12T16:05:23;101920.00;;;21.30
12918;BMP180;6526;54.312;13.092;2022-09-12T16:07:53;101901.00;;;21.40
12918;BMP180;6526;54.312;13.092;2022-09-12T16:10:24;101898.00;;;21.30
12918;BMP180;6526;54.312;13.092;2022-09-12T16:12:51;101904.00;;;21.30
12918;BMP180;6526;54.312;13.092;2022-09-12T16:15:20;101901.00;;;21.20
12918;BMP180;6526;54.312;13.092;2022-09-12T16:17:46;101893.00;;;21.20
12918;BMP180;6526;54.312;13.092;2022-09-12T16:20:13;101896.00;;;21.20
12918;BMP180;6526;54.312;13.092;2022-09-12T16:22:39;101900.00;;;21.20
12918;BMP180;6526;54.312;13.092;2022-09-12T16:25:06;101897.00;;;21.20
12918;BMP180;6526;54.312;13.092;2022-09-12T16:27:33;101888.00;;;21.20
12918;BMP180;6526;54.312;13.092;2022-09-12T16:30:00;101887.00;;;21.20
12918;BMP180;6526;54.312;13.092;2022-09-12T16:32:26;101894.00;;;21.20
12918;BMP180;6526;54.312;13.092;2022-09-12T16:34:52;101857.00;;;21.20
12918;BMP180;6526;54.312;13.092;2022-09-12T16:37:18;101878.00;;;21.20
12918;BMP180;6526;54.312;13.092;2022-09-12T16:39:44;101871.00;;;21.30